sensor_id;sensor_type;location;lat;lon;timestamp;temperature;humidity
4874;DHT22;2451;49.970;9.068;2023-12-14T00:01:14;6.00;99.90
4874;DHT22;2451;49.970;9.068;2023-12-14T00:03:42;6.00;99.90
4874;DHT22;2451;49.970;9.068;2023-12-14T00:06:11;6.00;99.90
4874;DHT22;2451;49.970;9.068;2023-12-14T00:08:37;6.00;99.90
4874;DHT22;2451;49.970;9.068;2023-12-14T00:11:07;6.00;99.90
4874;DHT22;2451;49.970;9.068;2023-12-14T00:13:33;6.00;99.90
4874;DHT22;2451;49.970;9.068;2023-12-14T00:15:58;6.00;99.90
4874;DHT22;2451;49.970;9.068;2023-12-14T00:18:24;6.00;99.90
4874;DHT22;2451;49.970;9.068;2023-12-14T00:20:50;5.90;99.90
4874;DHT22;2451;49.970;9.068;2023-12-14T00:23:15;6.00;99.90
4874;DHT22;2451;49.970;9.068;2023-12-14T00:25:41;6.00;99.90
4874;DHT22;2451;49.970;9.068;2023-12-14T00:28:06;6.00;99.90
4874;DHT22;2451;49.970;9.068;2023-12-14T00:30:32;6.00;99.90
4874;DHT22;2451;49.970;9.068;2023-12-14T00:32:57;6.00;99.90
4874;DHT22;2451;49.970;9.068;2023-12-14T00:35:23;6.00;99.90
4874;DHT22;2451;49.970;9.068;2023-12-14T00:37:50;6.00;99.90
4874;DHT22;2451;49.970;9.068;2023-12-14T00:40:15;6.00;99.90
4874;DHT22;2451;49.970;9.068;2023-12-14T00:42:41;6.00;99.90
4874;DHT22;2451;49.970;9.068;2023-12-14T00:45:06;6.10;99.90
4874;DHT22;2451;49.970;9.068;2023-12-14T00:47:32;6.10;99.90
4874;DHT22;2451;49.970;9.068;2023-12-14T00:49:58;6.10;99.90
4874;DHT22;2451;49.970;9.068;2023-12-14T00:52:23;6.10;99.90
4874;DHT22;2451;49.970;9.068;2023-12-14T00:54:49;6.10;99.90
4874;DHT22;2451;49.970;9.068;2023-12-14T00:57:14;6.20;99.90
4874;DHT22;2451;49.970;9.068;2023-12-14T00:59:40;6.20;99.90
4874;DHT22;2451;49.970;9.068;2023-12-14T01:02:06;6.20;99.90
4874;DHT22;2451;49.970;9.068;2023-12-14T01:04:31;6.20;99.90
4874;DHT22;2451;49.970;9.068;2023-12-14T01:06:57;6.20;99.90
4874;DHT22;2451;49.970;9.068;2023-12-14T01:09:22;6.30;99.90
4874;DHT22;2451;49.970;9.068;2023-12-14T01:11:48;6.30;99.90
4874;DHT22;2451;49.970;9.068;2023-12-14T01:14:13;6.30;99.90
4874;DHT22;2451;49.970;9.068;2023-12-14T01:16:39;6.30;99.90
4874;DHT22;2451;49.970;9.068;2023-12-14T01:19:04;6.30;99.90
4874;DHT22;2451;49.970;9.068;2023-12-14T01:21:31;6.30;99.90
4874;DHT22;2451;49.970;9.068;2023-12-14T01:23:57;6.30;99.90
4874;DHT22;2451;49.970;9.068;2023-12-14T01:26:22;6.30;99.90
4874;DHT22;2451;49.970;9.068;2023-12-14T01:28:48;6.30;99.90
4874;DHT22;2451;49.970;9.068;2023-12-14T01:31:14;6.30;99.90
4874;DHT22;2451;49.970;9.068;2023-12-14T01:33:39;6.30;99.90
4874;DHT22;2451;49.970;9.068;2023-12-14T01:36:05;6.30;99.90
4874;DHT22;2451;49.970;9.068;2023-12-14T01:38:30;6.30;99.90
4874;DHT22;2451;49.970;9.068;2023-12-14T01:40:56;6.30;99.90
4874;DHT22;2451;49.970;9.068;2023-12-14T01:43:21;6.30;99.90
4874;DHT22;2451;49.970;9.068;2023-12-14T01:45:47;6.40;99.90
4874;DHT22;2451;49.970;9.068;2023-12-14T01:48:13;6.40;99.90
4874;DHT22;2451;49.970;9.068;2023-12-14T01:50:38;6.40;99.90
4874;DHT22;2451;49.970;9.068;2023-12-14T01:53:04;6.40;99.90
4874;DHT22;2451;49.970;9.068;2023-12-14T01:55:29;6.40;99.90
4874;DHT22;2451;49.970;9.068;2023-12-14T01:57:55;6.40;99.90
4874;DHT22;2451;49.970;9.068;2023-12-14T02:00:38;6.50;99.90
4874;DHT22;2451;49.970;9.068;2023-12-14T02:03:05;6.50;99.90
4874;DHT22;2451;49.970;9.068;2023-12-14T02:05:30;6.50;99.90
4874;DHT22;2451;49.970;9.068;2023-12-14T02:07:56;6.50;99.90
4874;DHT22;2451;49.970;9.068;2023-12-14T02:10:23;6.50;99.90
4874;DHT22;2451;49.970;9.068;2023-12-14T02:12:48;6.50;99.90
4874;DHT22;2451;49.970;9.068;2023-12-14T02:15:14;6.50;99.90
4874;DHT22;2451;49.970;9.068;2023-12-14T02:17:39;6.50;99.90
4874;DHT22;2451;49.970;9.068;2023-12-14T02:20:07;6.50;99.90
4874;DHT22;2451;49.970;9.068;2023-12-14T02:22:47;6.50;99.90
4874;DHT22;2451;49.970;9.068;2023-12-14T02:25:13;6.50;99.90
4874;DHT22;2451;49.970;9.068;2023-12-14T02:27:38;6.50;99.90
4874;DHT22;2451;49.970;9.068;2023-12-14T02:30:04;6.50;99.90
4874;DHT22;2451;49.970;9.068;2023-12-14T02:32:30;6.50;99.90
4874;DHT22;2451;49.970;9.068;2023-12-14T02:34:55;6.50;99.90
4874;DHT22;2451;49.970;9.068;2023-12-14T02:37:21;6.50;99.90
4874;DHT22;2451;49.970;9.068;2023-12-14T02:39:46;6.50;99.90
4874;DHT22;2451;49.970;9.068;2023-12-14T02:42:13;6.50;99.90
4874;DHT22;2451;49.970;9.068;2023-12-14T02:44:39;6.50;99.90
4874;DHT22;2451;49.970;9.068;2023-12-14T02:47:04;6.50;99.90
4874;DHT22;2451;49.970;9.068;2023-12-14T02:49:30;6.50;99.90
4874;DHT22;2451;49.970;9.068;2023-12-14T02:51:55;6.50;99.90
4874;DHT22;2451;49.970;9.068;2023-12-14T02:54:21;6.50;99.90
4874;DHT22;2451;49.970;9.068;2023-12-14T02:56:46;6.50;99.90
4874;DHT22;2451;49.970;9.068;2023-12-14T02:59:12;6.50;99.90
4874;DHT22;2451;49.970;9.068;2023-12-14T03:01:37;6.40;99.90
4874;DHT22;2451;49.970;9.068;2023-12-14T03:04:03;6.40;99.90
4874;DHT22;2451;49.970;9.068;2023-12-14T03:06:29;6.40;99.90
4874;DHT22;2451;49.970;9.068;2023-12-14T03:08:54;6.40;99.90
4874;DHT22;2451;49.970;9.068;2023-12-14T03:11:23;6.40;99.90
4874;DHT22;2451;49.970;9.068;2023-12-14T03:13:49;6.40;99.90
4874;DHT22;2451;49.970;9.068;2023-12-14T03:16:14;6.40;99.90
4874;DHT22;2451;49.970;9.068;2023-12-14T03:18:42;6.50;99.90
4874;DHT22;2451;49.970;9.068;2023-12-14T03:21:09;6.40;99.90
4874;DHT22;2451;49.970;9.068;2023-12-14T03:23:34;6.50;99.90
4874;DHT22;2451;49.970;9.068;2023-12-14T03:26:00;6.40;99.90
4874;DHT22;2451;49.970;9.068;2023-12-14T03:28:26;6.50;99.90
4874;DHT22;2451;49.970;9.068;2023-12-14T03:30:52;6.50;99.90
4874;DHT22;2451;49.970;9.068;2023-12-14T03:33:18;6.50;99.90
4874;DHT22;2451;49.970;9.068;2023-12-14T03:35:44;6.50;99.90
4874;DHT22;2451;49.970;9.068;2023-12-14T03:38:13;6.50;99.90
4874;DHT22;2451;49.970;9.068;2023-12-14T03:40:38;6.50;99.90
4874;DHT22;2451;49.970;9.068;2023-12-14T03:43:04;6.50;99.90
4874;DHT22;2451;49.970;9.068;2023-12-14T03:45:30;6.50;99.90
4874;DHT22;2451;49.970;9.068;2023-12-14T03:47:55;6.50;99.90
4874;DHT22;2451;49.970;9.068;2023-12-14T03:50:21;6.50;99.90
4874;DHT22;2451;49.970;9.068;2023-12-14T03:52:47;6.50;99.90
4874;DHT22;2451;49.970;9.068;2023-12-14T03:55:12;6.40;99.90
4874;DHT22;2451;49.970;9.068;2023-12-14T03:57:40;6.50;99.90
4874;DHT22;2451;49.970;9.068;2023-12-14T04:00:10;6.40;99.90
4874;DHT22;2451;49.970;9.068;2023-12-14T04:02:36;6.40;99.90
4874;DHT22;2451;49.970;9.068;2023-12-14T04:05:02;6.40;99.90
4874;DHT22;2451;49.970;9.068;2023-12-14T04:07:27;6.40;99.90
4874;DHT22;2451;49.970;9.068;2023-12-14T04:09:53;6.40;99.90
4874;DHT22;2451;49.970;9.068;2023-12-14T04:12:18;6.40;99.90
4874;DHT22;2451;49.970;9.068;2023-12-14T04:14:45;6.40;99.90
4874;DHT22;2451;49.970;9.068;2023-12-14T04:17:11;6.40;99.90
4874;DHT22;2451;49.970;9.068;2023-12-14T04:19:40;6.40;99.90
4874;DHT22;2451;49.970;9.068;2023-12-14T04:22:06;6.40;99.90
4874;DHT22;2451;49.970;9.068;2023-12-14T04:24:31;6.40;99.90
4874;DHT22;2451;49.970;9.068;2023-12-14T04:26:57;6.40;99.90
4874;DHT22;2451;49.970;9.068;2023-12-14T04:29:23;6.30;99.90
4874;DHT22;2451;49.970;9.068;2023-12-14T04:31:48;6.40;99.90
4874;DHT22;2451;49.970;9.068;2023-12-14T04:34:14;6.30;99.90
4874;DHT22;2451;49.970;9.068;2023-12-14T04:36:45;6.30;99.90
4874;DHT22;2451;49.970;9.068;2023-12-14T04:39:11;6.30;99.90
4874;DHT22;2451;49.970;9.068;2023-12-14T04:41:37;6.30;99.90
4874;DHT22;2451;49.970;9.068;2023-12-14T04:44:03;6.20;99.90
4874;DHT22;2451;49.970;9.068;2023-12-14T04:46:28;6.30;99.90
4874;DHT22;2451;49.970;9.068;2023-12-14T04:48:54;6.30;99.90
4874;DHT22;2451;49.970;9.068;2023-12-14T04:51:20;6.30;99.90
4874;DHT22;2451;49.970;9.068;2023-12-14T04:53:46;6.30;99.90
4874;DHT22;2451;49.970;9.068;2023-12-14T04:56:12;6.30;99.90
4874;DHT22;2451;49.970;9.068;2023-12-14T04:58:41;6.30;99.90
4874;DHT22;2451;49.970;9.068;2023-12-14T05:01:07;6.20;99.90
4874;DHT22;2451;49.970;9.068;2023-12-14T05:03:34;6.20;99.90
4874;DHT22;2451;49.970;9.068;2023-12-14T05:06:00;6.30;99.90
4874;DHT22;2451;49.970;9.068;2023-12-14T05:08:26;6.20;99.90
4874;DHT22;2451;49.970;9.068;2023-12-14T05:10:51;6.20;99.90
4874;DHT22;2451;49.970;9.068;2023-12-14T05:13:17;6.20;99.90
4874;DHT22;2451;49.970;9.068;2023-12-14T05:15:42;6.20;99.90
4874;DHT22;2451;49.970;9.068;2023-12-14T05:18:08;6.20;99.90
4874;DHT22;2451;49.970;9.068;2023-12-14T05:20:34;6.10;99.90
4874;DHT22;2451;49.970;9.068;2023-12-14T05:23:00;6.10;99.90
4874;DHT22;2451;49.970;9.068;2023-12-14T05:25:25;6.10;99.90
4874;DHT22;2451;49.970;9.068;2023-12-14T05:27:51;6.10;99.90
4874;DHT22;2451;49.970;9.068;2023-12-14T05:30:17;6.00;99.90
4874;DHT22;2451;49.970;9.068;2023-12-14T05:32:43;6.00;99.90
4874;DHT22;2451;49.970;9.068;2023-12-14T05:35:09;6.00;99.90
4874;DHT22;2451;49.970;9.068;2023-12-14T05:37:35;6.00;99.90
4874;DHT22;2451;49.970;9.068;2023-12-14T05:40:01;5.90;99.90
4874;DHT22;2451;49.970;9.068;2023-12-14T05:42:27;5.80;99.90
4874;DHT22;2451;49.970;9.068;2023-12-14T05:44:52;5.80;99.90
4874;DHT22;2451;49.970;9.068;2023-12-14T05:47:18;5.90;99.90
4874;DHT22;2451;49.970;9.068;2023-12-14T05:49:44;5.90;99.90
4874;DHT22;2451;49.970;9.068;2023-12-14T05:52:10;5.90;99.90
4874;DHT22;2451;49.970;9.068;2023-12-14T05:54:36;6.00;99.90
4874;DHT22;2451;49.970;9.068;2023-12-14T05:57:03;5.90;99.90
4874;DHT22;2451;49.970;9.068;2023-12-14T05:59:28;5.90;99.90
4874;DHT22;2451;49.970;9.068;2023-12-14T06:01:57;5.90;99.90
4874;DHT22;2451;49.970;9.068;2023-12-14T06:04:23;5.90;99.90
4874;DHT22;2451;49.970;9.068;2023-12-14T06:06:49;5.90;99.90
4874;DHT22;2451;49.970;9.068;2023-12-14T06:09:14;5.90;99.90
4874;DHT22;2451;49.970;9.068;2023-12-14T06:11:40;5.90;99.90
4874;DHT22;2451;49.970;9.068;2023-12-14T06:14:05;6.00;99.90
4874;DHT22;2451;49.970;9.068;2023-12-14T06:16:31;6.00;99.90
4874;DHT22;2451;49.970;9.068;2023-12-14T06:18:56;6.00;99.90
4874;DHT22;2451;49.970;9.068;2023-12-14T06:21:22;6.00;99.90
4874;DHT22;2451;49.970;9.068;2023-12-14T06:23:50;6.00;99.90
4874;DHT22;2451;49.970;9.068;2023-12-14T06:26:16;5.90;99.90
4874;DHT22;2451;49.970;9.068;2023-12-14T06:28:41;5.90;99.90
4874;DHT22;2451;49.970;9.068;2023-12-14T06:31:15;5.90;99.90
4874;DHT22;2451;49.970;9.068;2023-12-14T06:33:41;5.80;99.90
4874;DHT22;2451;49.970;9.068;2023-12-14T06:36:08;5.80;99.90
4874;DHT22;2451;49.970;9.068;2023-12-14T06:38:33;5.80;99.90
4874;DHT22;2451;49.970;9.068;2023-12-14T06:41:00;5.80;99.90
4874;DHT22;2451;49.970;9.068;2023-12-14T06:43:27;5.80;99.90
4874;DHT22;2451;49.970;9.068;2023-12-14T06:45:53;5.80;99.90
4874;DHT22;2451;49.970;9.068;2023-12-14T06:48:19;5.80;99.90
4874;DHT22;2451;49.970;9.068;2023-12-14T06:50:45;5.80;99.90
4874;DHT22;2451;49.970;9.068;2023-12-14T06:53:10;5.80;99.90
4874;DHT22;2451;49.970;9.068;2023-12-14T06:55:36;5.80;99.90
4874;DHT22;2451;49.970;9.068;2023-12-14T06:58:01;5.70;99.90
4874;DHT22;2451;49.970;9.068;2023-12-14T07:00:27;5.70;99.90
4874;DHT22;2451;49.970;9.068;2023-12-14T07:02:54;5.70;99.90
4874;DHT22;2451;49.970;9.068;2023-12-14T07:05:20;5.70;99.90
4874;DHT22;2451;49.970;9.068;2023-12-14T07:07:45;5.70;99.90
4874;DHT22;2451;49.970;9.068;2023-12-14T07:10:11;5.70;99.90
4874;DHT22;2451;49.970;9.068;2023-12-14T07:12:37;5.70;99.90
4874;DHT22;2451;49.970;9.068;2023-12-14T07:15:02;5.60;99.90
4874;DHT22;2451;49.970;9.068;2023-12-14T07:17:28;5.70;99.90
4874;DHT22;2451;49.970;9.068;2023-12-14T07:19:53;5.70;99.90
4874;DHT22;2451;49.970;9.068;2023-12-14T07:22:19;5.70;99.90
4874;DHT22;2451;49.970;9.068;2023-12-14T07:24:44;5.70;99.90
4874;DHT22;2451;49.970;9.068;2023-12-14T07:27:10;5.70;99.90
4874;DHT22;2451;49.970;9.068;2023-12-14T07:29:35;5.70;99.90
4874;DHT22;2451;49.970;9.068;2023-12-14T07:32:01;5.70;99.90
4874;DHT22;2451;49.970;9.068;2023-12-14T07:34:26;5.70;99.90
4874;DHT22;2451;49.970;9.068;2023-12-14T07:36:53;5.80;99.90
4874;DHT22;2451;49.970;9.068;2023-12-14T07:39:19;5.80;99.90
4874;DHT22;2451;49.970;9.068;2023-12-14T07:41:45;5.80;99.90
4874;DHT22;2451;49.970;9.068;2023-12-14T07:44:10;5.90;99.90
4874;DHT22;2451;49.970;9.068;2023-12-14T07:46:36;5.90;99.90
4874;DHT22;2451;49.970;9.068;2023-12-14T07:49:04;5.90;99.90
4874;DHT22;2451;49.970;9.068;2023-12-14T07:51:30;5.90;99.90
4874;DHT22;2451;49.970;9.068;2023-12-14T07:53:55;5.90;99.90
4874;DHT22;2451;49.970;9.068;2023-12-14T07:56:21;5.90;99.90
4874;DHT22;2451;49.970;9.068;2023-12-14T07:58:50;5.90;99.90
4874;DHT22;2451;49.970;9.068;2023-12-14T08:01:16;5.90;99.90
4874;DHT22;2451;49.970;9.068;2023-12-14T08:03:41;5.90;99.90
4874;DHT22;2451;49.970;9.068;2023-12-14T08:06:07;5.90;99.90
4874;DHT22;2451;49.970;9.068;2023-12-14T08:08:33;6.00;99.90
4874;DHT22;2451;49.970;9.068;2023-12-14T08:10:58;6.00;99.90
4874;DHT22;2451;49.970;9.068;2023-12-14T08:13:24;6.10;99.90
4874;DHT22;2451;49.970;9.068;2023-12-14T08:15:49;6.10;99.90
4874;DHT22;2451;49.970;9.068;2023-12-14T08:18:15;6.10;99.90
4874;DHT22;2451;49.970;9.068;2023-12-14T08:20:40;6.20;99.90
4874;DHT22;2451;49.970;9.068;2023-12-14T08:23:06;6.20;99.90
4874;DHT22;2451;49.970;9.068;2023-12-14T08:25:32;6.20;99.90
4874;DHT22;2451;49.970;9.068;2023-12-14T08:27:57;6.20;99.90
4874;DHT22;2451;49.970;9.068;2023-12-14T08:30:23;6.30;99.90
4874;DHT22;2451;49.970;9.068;2023-12-14T08:32:49;6.30;99.90
4874;DHT22;2451;49.970;9.068;2023-12-14T08:35:14;6.30;99.90
4874;DHT22;2451;49.970;9.068;2023-12-14T08:37:40;6.30;99.90
4874;DHT22;2451;49.970;9.068;2023-12-14T08:40:06;6.30;99.90
4874;DHT22;2451;49.970;9.068;2023-12-14T08:42:32;6.30;99.90
4874;DHT22;2451;49.970;9.068;2023-12-14T08:44:58;6.30;99.90
4874;DHT22;2451;49.970;9.068;2023-12-14T08:47:24;6.30;99.90
4874;DHT22;2451;49.970;9.068;2023-12-14T08:49:49;6.30;99.90
4874;DHT22;2451;49.970;9.068;2023-12-14T08:52:15;6.30;99.90
4874;DHT22;2451;49.970;9.068;2023-12-14T08:54:41;6.40;99.90
4874;DHT22;2451;49.970;9.068;2023-12-14T08:57:09;6.30;99.90
4874;DHT22;2451;49.970;9.068;2023-12-14T08:59:34;6.40;99.90
4874;DHT22;2451;49.970;9.068;2023-12-14T09:02:00;6.40;99.90
4874;DHT22;2451;49.970;9.068;2023-12-14T09:04:25;6.40;99.90
4874;DHT22;2451;49.970;9.068;2023-12-14T09:06:52;6.40;99.90
4874;DHT22;2451;49.970;9.068;2023-12-14T09:09:18;6.40;99.90
4874;DHT22;2451;49.970;9.068;2023-12-14T09:11:44;6.40;99.90
4874;DHT22;2451;49.970;9.068;2023-12-14T09:14:09;6.40;99.90
4874;DHT22;2451;49.970;9.068;2023-12-14T09:16:35;6.40;99.90
4874;DHT22;2451;49.970;9.068;2023-12-14T09:19:00;6.50;99.90
4874;DHT22;2451;49.970;9.068;2023-12-14T09:21:26;6.50;99.90
4874;DHT22;2451;49.970;9.068;2023-12-14T09:23:51;6.60;99.90
4874;DHT22;2451;49.970;9.068;2023-12-14T09:26:19;6.60;99.90
4874;DHT22;2451;49.970;9.068;2023-12-14T09:28:44;6.60;99.90
4874;DHT22;2451;49.970;9.068;2023-12-14T09:31:10;6.70;99.90
4874;DHT22;2451;49.970;9.068;2023-12-14T09:33:36;6.70;99.90
4874;DHT22;2451;49.970;9.068;2023-12-14T09:36:02;6.80;99.90
4874;DHT22;2451;49.970;9.068;2023-12-14T09:38:27;6.80;99.90
4874;DHT22;2451;49.970;9.068;2023-12-14T09:40:53;6.80;99.90
4874;DHT22;2451;49.970;9.068;2023-12-14T09:43:19;6.90;99.90
4874;DHT22;2451;49.970;9.068;2023-12-14T09:45:46;6.90;99.90
4874;DHT22;2451;49.970;9.068;2023-12-14T09:48:13;6.90;99.90
4874;DHT22;2451;49.970;9.068;2023-12-14T09:50:40;6.90;99.90
4874;DHT22;2451;49.970;9.068;2023-12-14T09:53:06;6.90;99.90
4874;DHT22;2451;49.970;9.068;2023-12-14T09:55:33;6.90;99.90
4874;DHT22;2451;49.970;9.068;2023-12-14T09:57:58;6.90;99.90
4874;DHT22;2451;49.970;9.068;2023-12-14T10:00:37;6.90;99.90
4874;DHT22;2451;49.970;9.068;2023-12-14T10:03:36;7.00;99.90
4874;DHT22;2451;49.970;9.068;2023-12-14T10:06:01;7.00;99.90
4874;DHT22;2451;49.970;9.068;2023-12-14T10:08:27;7.00;99.90
4874;DHT22;2451;49.970;9.068;2023-12-14T10:10:54;7.10;99.90
4874;DHT22;2451;49.970;9.068;2023-12-14T10:13:35;7.10;99.90
4874;DHT22;2451;49.970;9.068;2023-12-14T10:16:01;7.20;99.90
4874;DHT22;2451;49.970;9.068;2023-12-14T10:18:27;7.20;99.90
4874;DHT22;2451;49.970;9.068;2023-12-14T10:20:53;7.30;99.90
4874;DHT22;2451;49.970;9.068;2023-12-14T10:23:19;7.40;99.90
4874;DHT22;2451;49.970;9.068;2023-12-14T10:25:45;7.40;99.90
4874;DHT22;2451;49.970;9.068;2023-12-14T10:28:14;7.40;99.90
4874;DHT22;2451;49.970;9.068;2023-12-14T10:30:40;7.40;99.90
4874;DHT22;2451;49.970;9.068;2023-12-14T10:33:06;7.40;99.90
4874;DHT22;2451;49.970;9.068;2023-12-14T10:35:31;7.30;99.90
4874;DHT22;2451;49.970;9.068;2023-12-14T10:38:01;7.20;99.90
4874;DHT22;2451;49.970;9.068;2023-12-14T10:40:28;7.10;99.90
4874;DHT22;2451;49.970;9.068;2023-12-14T10:42:55;7.00;99.90
4874;DHT22;2451;49.970;9.068;2023-12-14T10:45:26;7.00;99.90
4874;DHT22;2451;49.970;9.068;2023-12-14T10:47:53;6.90;99.90
4874;DHT22;2451;49.970;9.068;2023-12-14T10:50:20;7.00;99.90
4874;DHT22;2451;49.970;9.068;2023-12-14T10:52:46;6.90;99.90
4874;DHT22;2451;49.970;9.068;2023-12-14T10:55:21;6.90;99.90
4874;DHT22;2451;49.970;9.068;2023-12-14T10:57:47;6.80;99.90
4874;DHT22;2451;49.970;9.068;2023-12-14T11:00:15;6.80;99.90
4874;DHT22;2451;49.970;9.068;2023-12-14T11:02:45;6.80;99.90
4874;DHT22;2451;49.970;9.068;2023-12-14T11:05:12;6.80;99.90
4874;DHT22;2451;49.970;9.068;2023-12-14T11:07:44;6.80;99.90
4874;DHT22;2451;49.970;9.068;2023-12-14T11:10:10;6.90;99.90
4874;DHT22;2451;49.970;9.068;2023-12-14T11:12:37;6.90;99.90
4874;DHT22;2451;49.970;9.068;2023-12-14T11:15:06;6.90;99.90
4874;DHT22;2451;49.970;9.068;2023-12-14T11:17:31;6.90;99.90
4874;DHT22;2451;49.970;9.068;2023-12-14T11:20:23;6.90;99.90
4874;DHT22;2451;49.970;9.068;2023-12-14T11:22:49;6.90;99.90
4874;DHT22;2451;49.970;9.068;2023-12-14T11:25:16;6.90;99.90
4874;DHT22;2451;49.970;9.068;2023-12-14T11:27:43;6.90;99.90
4874;DHT22;2451;49.970;9.068;2023-12-14T11:30:11;6.90;99.90
4874;DHT22;2451;49.970;9.068;2023-12-14T11:32:37;7.00;99.90
4874;DHT22;2451;49.970;9.068;2023-12-14T11:35:03;6.90;99.90
4874;DHT22;2451;49.970;9.068;2023-12-14T11:37:28;7.00;99.90
4874;DHT22;2451;49.970;9.068;2023-12-14T11:39:54;7.00;99.90
4874;DHT22;2451;49.970;9.068;2023-12-14T11:42:20;7.00;99.90
4874;DHT22;2451;49.970;9.068;2023-12-14T11:44:45;7.00;99.90
4874;DHT22;2451;49.970;9.068;2023-12-14T11:47:11;7.10;99.90
4874;DHT22;2451;49.970;9.068;2023-12-14T11:49:37;7.10;99.90
4874;DHT22;2451;49.970;9.068;2023-12-14T11:52:02;7.10;99.90
4874;DHT22;2451;49.970;9.068;2023-12-14T11:54:30;7.10;99.90
4874;DHT22;2451;49.970;9.068;2023-12-14T11:56:55;7.10;99.90
4874;DHT22;2451;49.970;9.068;2023-12-14T11:59:21;7.10;99.90
4874;DHT22;2451;49.970;9.068;2023-12-14T12:01:59;7.10;99.90
4874;DHT22;2451;49.970;9.068;2023-12-14T12:04:26;7.10;99.90
4874;DHT22;2451;49.970;9.068;2023-12-14T12:07:03;7.10;99.90
4874;DHT22;2451;49.970;9.068;2023-12-14T12:09:42;7.10;99.90
4874;DHT22;2451;49.970;9.068;2023-12-14T12:12:09;7.00;99.90
4874;DHT22;2451;49.970;9.068;2023-12-14T12:14:36;7.00;99.90
4874;DHT22;2451;49.970;9.068;2023-12-14T12:17:02;7.10;99.90
4874;DHT22;2451;49.970;9.068;2023-12-14T12:19:30;7.10;99.90
4874;DHT22;2451;49.970;9.068;2023-12-14T12:21:56;7.10;99.90
4874;DHT22;2451;49.970;9.068;2023-12-14T12:24:21;7.10;99.90
4874;DHT22;2451;49.970;9.068;2023-12-14T12:26:47;7.10;99.90
4874;DHT22;2451;49.970;9.068;2023-12-14T12:29:13;7.20;99.90
4874;DHT22;2451;49.970;9.068;2023-12-14T12:31:38;7.20;99.90
4874;DHT22;2451;49.970;9.068;2023-12-14T12:34:05;7.20;99.90
4874;DHT22;2451;49.970;9.068;2023-12-14T12:36:30;7.20;99.90
4874;DHT22;2451;49.970;9.068;2023-12-14T12:38:56;7.20;99.90
4874;DHT22;2451;49.970;9.068;2023-12-14T12:41:22;7.30;99.90
4874;DHT22;2451;49.970;9.068;2023-12-14T12:43:47;7.30;99.90
4874;DHT22;2451;49.970;9.068;2023-12-14T12:46:13;7.40;99.90
4874;DHT22;2451;49.970;9.068;2023-12-14T12:48:38;7.30;99.90
4874;DHT22;2451;49.970;9.068;2023-12-14T12:51:05;7.40;99.90
4874;DHT22;2451;49.970;9.068;2023-12-14T12:53:30;7.40;99.90
4874;DHT22;2451;49.970;9.068;2023-12-14T12:55:56;7.40;99.90
4874;DHT22;2451;49.970;9.068;2023-12-14T12:58:21;7.40;99.90
4874;DHT22;2451;49.970;9.068;2023-12-14T13:00:47;7.50;99.90
4874;DHT22;2451;49.970;9.068;2023-12-14T13:03:12;7.50;99.90
4874;DHT22;2451;49.970;9.068;2023-12-14T13:05:38;7.60;99.90
4874;DHT22;2451;49.970;9.068;2023-12-14T13:08:03;7.60;99.90
4874;DHT22;2451;49.970;9.068;2023-12-14T13:10:29;7.60;99.90
4874;DHT22;2451;49.970;9.068;2023-12-14T13:12:55;7.60;99.90
4874;DHT22;2451;49.970;9.068;2023-12-14T13:15:22;7.60;99.90
4874;DHT22;2451;49.970;9.068;2023-12-14T13:17:52;7.70;99.90
4874;DHT22;2451;49.970;9.068;2023-12-14T13:20:18;7.70;99.90
4874;DHT22;2451;49.970;9.068;2023-12-14T13:22:45;7.80;99.90
4874;DHT22;2451;49.970;9.068;2023-12-14T13:25:10;7.80;99.90
4874;DHT22;2451;49.970;9.068;2023-12-14T13:27:36;7.80;99.90
4874;DHT22;2451;49.970;9.068;2023-12-14T13:30:03;7.80;99.90
4874;DHT22;2451;49.970;9.068;2023-12-14T13:32:29;7.80;99.90
4874;DHT22;2451;49.970;9.068;2023-12-14T13:34:55;7.80;99.90
4874;DHT22;2451;49.970;9.068;2023-12-14T13:37:20;7.80;99.90
4874;DHT22;2451;49.970;9.068;2023-12-14T13:39:46;7.80;99.90
4874;DHT22;2451;49.970;9.068;2023-12-14T13:42:13;7.80;99.90
4874;DHT22;2451;49.970;9.068;2023-12-14T13:44:40;7.80;99.90
4874;DHT22;2451;49.970;9.068;2023-12-14T13:47:06;7.90;99.90
4874;DHT22;2451;49.970;9.068;2023-12-14T13:49:32;7.90;99.90
4874;DHT22;2451;49.970;9.068;2023-12-14T13:51:58;7.80;99.90
4874;DHT22;2451;49.970;9.068;2023-12-14T13:54:23;7.80;99.90
4874;DHT22;2451;49.970;9.068;2023-12-14T13:56:49;7.80;99.90
4874;DHT22;2451;49.970;9.068;2023-12-14T13:59:14;7.80;99.90
4874;DHT22;2451;49.970;9.068;2023-12-14T14:01:40;7.80;99.90
4874;DHT22;2451;49.970;9.068;2023-12-14T14:04:05;7.80;99.90
4874;DHT22;2451;49.970;9.068;2023-12-14T14:06:31;7.80;99.90
4874;DHT22;2451;49.970;9.068;2023-12-14T14:08:57;7.80;99.90
4874;DHT22;2451;49.970;9.068;2023-12-14T14:11:22;7.90;99.90
4874;DHT22;2451;49.970;9.068;2023-12-14T14:13:48;7.80;99.90
4874;DHT22;2451;49.970;9.068;2023-12-14T14:16:14;7.80;99.90
4874;DHT22;2451;49.970;9.068;2023-12-14T14:18:39;7.90;99.90
4874;DHT22;2451;49.970;9.068;2023-12-14T14:21:05;7.90;99.90
4874;DHT22;2451;49.970;9.068;2023-12-14T14:23:36;7.90;99.90
4874;DHT22;2451;49.970;9.068;2023-12-14T14:26:02;7.80;99.90
4874;DHT22;2451;49.970;9.068;2023-12-14T14:28:28;7.80;99.90
4874;DHT22;2451;49.970;9.068;2023-12-14T14:30:54;7.70;99.90
4874;DHT22;2451;49.970;9.068;2023-12-14T14:33:19;7.70;99.90
4874;DHT22;2451;49.970;9.068;2023-12-14T14:35:45;7.70;99.90
4874;DHT22;2451;49.970;9.068;2023-12-14T14:38:14;7.70;99.90
4874;DHT22;2451;49.970;9.068;2023-12-14T14:40:41;7.70;99.90
4874;DHT22;2451;49.970;9.068;2023-12-14T14:43:07;7.60;99.90
4874;DHT22;2451;49.970;9.068;2023-12-14T14:45:33;7.60;99.90
4874;DHT22;2451;49.970;9.068;2023-12-14T14:47:58;7.60;99.90
4874;DHT22;2451;49.970;9.068;2023-12-14T14:50:24;7.60;99.90
4874;DHT22;2451;49.970;9.068;2023-12-14T14:52:49;7.50;99.90
4874;DHT22;2451;49.970;9.068;2023-12-14T14:55:15;7.50;99.90
4874;DHT22;2451;49.970;9.068;2023-12-14T14:57:41;7.50;99.90
4874;DHT22;2451;49.970;9.068;2023-12-14T15:00:07;7.50;99.90
4874;DHT22;2451;49.970;9.068;2023-12-14T15:02:33;7.50;99.90
4874;DHT22;2451;49.970;9.068;2023-12-14T15:04:58;7.40;99.90
4874;DHT22;2451;49.970;9.068;2023-12-14T15:07:24;7.40;99.90
4874;DHT22;2451;49.970;9.068;2023-12-14T15:09:49;7.40;99.90
4874;DHT22;2451;49.970;9.068;2023-12-14T15:12:15;7.40;99.90
4874;DHT22;2451;49.970;9.068;2023-12-14T15:14:40;7.30;99.90
4874;DHT22;2451;49.970;9.068;2023-12-14T15:17:06;7.30;99.90
4874;DHT22;2451;49.970;9.068;2023-12-14T15:19:31;7.30;99.90
4874;DHT22;2451;49.970;9.068;2023-12-14T15:21:57;7.30;99.90
4874;DHT22;2451;49.970;9.068;2023-12-14T15:24:22;7.20;99.90
4874;DHT22;2451;49.970;9.068;2023-12-14T15:26:48;7.20;99.90
4874;DHT22;2451;49.970;9.068;2023-12-14T15:29:14;7.20;99.90
4874;DHT22;2451;49.970;9.068;2023-12-14T15:31:40;7.20;99.90
4874;DHT22;2451;49.970;9.068;2023-12-14T15:34:06;7.20;99.90
4874;DHT22;2451;49.970;9.068;2023-12-14T15:36:32;7.20;99.90
4874;DHT22;2451;49.970;9.068;2023-12-14T15:39:02;7.10;99.90
4874;DHT22;2451;49.970;9.068;2023-12-14T15:41:27;7.10;99.90
4874;DHT22;2451;49.970;9.068;2023-12-14T15:43:54;7.10;99.90
4874;DHT22;2451;49.970;9.068;2023-12-14T15:46:19;7.00;99.90
4874;DHT22;2451;49.970;9.068;2023-12-14T15:48:45;7.00;99.90
4874;DHT22;2451;49.970;9.068;2023-12-14T15:51:12;7.00;99.90
4874;DHT22;2451;49.970;9.068;2023-12-14T15:53:37;7.00;99.90
4874;DHT22;2451;49.970;9.068;2023-12-14T15:56:03;7.00;99.90
4874;DHT22;2451;49.970;9.068;2023-12-14T15:58:29;7.00;99.90
4874;DHT22;2451;49.970;9.068;2023-12-14T16:00:54;6.90;99.90
4874;DHT22;2451;49.970;9.068;2023-12-14T16:03:20;6.90;99.90
4874;DHT22;2451;49.970;9.068;2023-12-14T16:05:46;6.90;99.90
4874;DHT22;2451;49.970;9.068;2023-12-14T16:08:11;6.90;99.90
4874;DHT22;2451;49.970;9.068;2023-12-14T16:10:37;6.90;99.90